Latest Weather Observations for Cape Otway

IDV60801

Issued at 6:02 am EDT Monday 15 February 2016 (issued every 30 minutes, with the page automatically refreshed every 10 minutes)

About weather observations | Map of weather stations | Latest weather observations for VIC | Other Formats
Station Details ID: 090015 Name: CAPE OTWAY LIGHTHOUSE Lat: -38.86 Lon: 143.51 Height: 82.0 m
Data from the previous 72 hours. | See also: Recent months at Cape Otway
Date/Time
EDT
Temp
°C
App
Temp
°C
Dew
Point
Rel
Hum
%
Delta-T
°C
Wind Press
QNH
hPa
Press
MSL
hPa
Rain
since 9 am
mm
Dir
 
Spd
km/h
Gust
km/h
Spd
kts
Gust
kts
15/06:00am 12.8 9.6 11.4 91 0.7 NNW 19 22 10 12 1012.1 1011.9 3.6
15/05:30am 12.8 10.0 11.2 90 0.8 N 17 22 9 12 1012.3 - 3.6
15/05:00am 13.0 10.3 11.6 91 0.7 N 17 22 9 12 1012.3 - 3.6
15/04:30am 13.6 11.8 12.0 90 0.9 NNW 13 19 7 10 1012.4 - 3.6
15/04:00am 14.0 11.9 11.2 83 1.5 NNW 13 17 7 9 1012.6 - 3.2
15/03:30am 14.0 11.9 11.0 82 1.6 NNW 13 17 7 9 1012.8 - 3.2
15/03:00am 16.0 12.8 10.1 68 3.1 W 17 26 9 14 1012.9 1012.7 3.2
15/02:30am 16.0 12.4 9.9 67 3.2 W 19 26 10 14 1013.1 - 3.2
15/02:00am 15.8 12.2 10.6 71 2.8 W 20 28 11 15 1013.3 - 3.2
15/01:30am 16.0 12.6 10.5 70 2.9 W 19 26 10 14 1013.5 - 3.2
15/01:00am 16.0 12.6 10.7 71 2.8 WSW 19 28 10 15 1013.7 - 3.2
15/12:30am 16.1 12.5 10.6 70 2.9 WSW 20 28 11 15 1013.8 - 3.2
15/12:00am 15.9 12.5 10.7 71 2.8 WSW 19 28 10 15 1014.0 1013.8 3.2
 
Date/Time
EDT
Temp
°C
App
Temp
°C
Dew
Point
Rel
Hum
%
Delta-T
°C
Wind Press
QNH
hPa
Press
MSL
hPa
Rain
since 9 am
mm
Dir
 
Spd
km/h
Gust
km/h
Spd
kts
Gust
kts
14/11:30pm 16.0 12.1 10.7 71 2.8 WSW 22 32 12 17 1014.1 - 3.2
14/11:00pm 15.8 12.2 11.8 77 2.2 WSW 22 35 12 19 1014.3 - 3.2
14/10:30pm 16.1 13.5 11.9 76 2.3 W 17 24 9 13 1014.2 - 2.8
14/10:00pm 15.7 12.6 11.5 76 2.3 W 19 26 10 14 1014.2 - 2.8
14/09:30pm 15.7 11.9 12.5 81 1.8 WSW 24 35 13 19 1013.9 - 2.8
14/09:00pm 15.2 9.9 12.5 84 1.5 SW 32 43 17 23 1013.6 1013.4 2.8
14/08:30pm 15.8 11.4 14.0 89 1.0 SW 30 46 16 25 1013.1 - 2.8
14/08:00pm 15.6 12.4 11.8 78 2.1 W 20 26 11 14 1012.9 - 2.2
14/07:30pm 15.4 10.8 12.2 81 1.8 W 28 43 15 23 1012.7 - 2.2
14/07:00pm 15.4 13.4 13.8 90 0.9 WNW 17 24 9 13 1012.7 - 2.2
14/06:30pm 15.3 11.7 13.1 87 1.2 W 24 35 13 19 1012.8 - 1.0
14/06:00pm 16.0 11.0 13.5 85 1.4 SW 32 48 17 26 1012.4 1012.2 0.2
14/05:49pm 17.9 13.6 13.2 74 2.7 W 28 46 15 25 1012.3 - 0.0
14/05:30pm 18.4 14.0 11.7 65 3.7 W 26 33 14 18 1012.1 - 0.0
14/05:00pm 18.6 13.4 11.7 64 3.8 W 30 37 16 20 1012.0 - 0.0
14/04:30pm 19.3 14.6 12.1 63 4.0 W 28 39 15 21 1012.0 - 0.0
14/04:00pm 18.7 14.0 12.0 65 3.7 W 28 39 15 21 1012.1 - 0.0
14/03:30pm 17.7 11.7 13.4 76 2.4 WSW 37 56 20 30 1012.0 - 0.0
14/03:23pm 18.4 13.2 13.3 72 2.9 W 33 52 18 28 1011.9 - 0.0
14/03:00pm 18.8 12.8 10.9 60 4.3 W 33 46 18 25 1011.9 1011.7 0.0
14/02:43pm 18.5 13.0 12.0 66 3.6 W 32 50 17 27 1011.9 - 0.0
14/02:30pm 18.5 12.6 12.5 68 3.4 WSW 35 50 19 27 1011.9 - 0.0
14/02:09pm 18.6 12.3 13.5 72 2.9 WSW 39 56 21 30 1011.7 - 0.0
14/02:02pm 19.4 13.8 11.4 60 4.4 W 32 50 17 27 1011.7 - 0.0
14/02:00pm 20.1 15.3 11.8 59 4.6 W 28 43 15 23 1011.7 - 0.0
14/01:53pm 20.3 15.8 13.7 66 3.8 W 30 48 16 26 1011.6 - 0.0
14/01:30pm 19.4 15.1 13.1 67 3.6 W 28 44 15 24 1011.6 - 0.0
14/01:00pm 19.2 13.8 12.2 64 3.9 W 32 43 17 23 1011.6 - 0.0
14/12:39pm 17.9 13.9 14.0 78 2.2 WNW 28 46 15 25 1011.6 - 0.0
14/12:30pm 17.7 13.1 13.4 76 2.4 WNW 30 44 16 24 1011.5 - 0.0
14/12:00pm 19.6 15.3 13.3 67 3.6 WNW 28 39 15 21 1011.5 1011.3 0.0
14/11:30am 18.8 12.6 11.4 62 4.1 W 35 48 19 26 1011.5 - 0.0
14/11:00am 18.5 14.0 11.3 63 3.9 W 26 39 14 21 1011.4 - 0.0
14/10:41am 17.2 12.0 11.7 70 3.0 W 30 48 16 26 1011.3 - 0.0
14/10:30am 17.7 11.9 11.5 67 3.4 W 33 46 18 25 1011.3 - 0.0
14/10:00am 18.6 14.2 11.7 64 3.8 WNW 26 37 14 20 1011.0 - 0.0
14/09:30am 17.2 13.0 12.5 74 2.6 NW 26 37 14 20 1011.0 - 0.0
14/09:00am 17.9 12.8 11.9 68 3.3 W 30 39 16 21 1010.6 1010.4 0.0
14/08:30am 17.7 11.8 11.0 65 3.6 W 33 43 18 23 1010.3 - 0.0
14/08:00am 17.7 12.3 11.0 65 3.6 W 30 43 16 23 1010.2 - 0.0
14/07:30am 17.2 11.9 11.2 68 3.3 W 30 39 16 21 1010.1 - 0.0
14/07:00am 17.0 11.3 11.1 68 3.2 W 32 44 17 24 1009.7 - 0.0
14/06:30am 17.1 11.3 10.9 67 3.3 W 32 46 17 25 1009.3 - 0.0
14/06:00am 16.9 11.3 11.4 70 3.0 W 32 43 17 23 1009.0 1008.8 0.0
14/05:30am 16.9 11.8 12.0 73 2.7 W 30 41 16 22 1008.7 - 0.0
14/05:00am 16.1 13.1 12.7 80 1.9 NW 20 33 11 18 1008.5 - 0.0
14/04:30am 17.3 11.4 12.4 73 2.7 W 35 46 19 25 1008.3 - 0.0
14/04:00am 17.0 12.1 12.5 75 2.5 W 30 41 16 22 1008.5 - 0.0
14/03:30am 17.6 12.7 11.4 67 3.4 W 28 43 15 23 1008.6 - 0.0
14/03:00am 17.2 11.8 11.0 67 3.4 W 30 39 16 21 1008.7 1008.5 0.0
14/02:30am 17.2 11.6 10.3 64 3.7 W 30 43 16 23 1008.8 - 0.0
14/02:00am 17.2 11.8 11.0 67 3.3 W 30 41 16 22 1009.0 - 0.0
14/01:30am 17.2 11.3 10.3 64 3.7 W 32 43 17 23 1009.1 - 0.0
14/01:00am 17.3 11.1 10.2 63 3.8 W 33 43 18 23 1009.3 - 0.0
14/12:30am 17.3 12.0 11.3 68 3.3 W 30 39 16 21 1009.5 - 0.0
14/12:00am 17.5 11.5 10.9 65 3.6 W 33 44 18 24 1009.7 1009.5 0.0
 
Date/Time
EDT
Temp
°C
App
Temp
°C
Dew
Point
Rel
Hum
%
Delta-T
°C
Wind Press
QNH
hPa
Press
MSL
hPa
Rain
since 9 am
mm
Dir
 
Spd
km/h
Gust
km/h
Spd
kts
Gust
kts
13/11:30pm 17.4 10.8 10.1 62 3.9 W 35 44 19 24 1010.2 - 0.0
13/11:00pm 17.6 11.3 11.2 66 3.5 W 35 50 19 27 1010.3 - 0.0
13/10:30pm 17.7 11.5 11.5 67 3.4 W 35 46 19 25 1010.4 - 0.0
13/10:11pm 17.7 12.3 12.2 70 3.0 W 32 50 17 27 1010.2 - 0.0
13/10:00pm 17.8 12.4 12.9 73 2.8 W 33 46 18 25 1010.1 - 0.0
13/09:30pm 17.9 12.9 14.0 78 2.2 W 33 46 18 25 1009.8 - 0.0
13/09:00pm 17.5 13.8 15.1 86 1.4 W 28 41 15 22 1009.5 1009.3 0.0
13/08:30pm 17.9 16.1 15.5 86 1.4 WNW 19 24 10 13 1009.1 - 0.0
13/08:00pm 17.7 15.9 15.5 87 1.3 W 19 26 10 14 1008.8 - 0.0
13/07:30pm 18.5 15.3 15.2 81 1.9 W 26 35 14 19 1008.5 - 0.0
13/07:00pm 19.1 15.9 15.2 78 2.3 W 26 37 14 20 1008.3 - 0.0
13/06:30pm 19.5 15.6 16.5 83 1.8 W 32 43 17 23 1008.2 - 0.0
13/06:00pm 20.6 18.7 16.6 78 2.4 W 22 33 12 18 1008.0 1007.8 0.0
13/05:30pm 21.0 19.4 16.4 75 2.8 W 20 32 11 17 1008.0 - 0.0
13/05:00pm 20.6 17.2 15.8 74 2.9 W 28 37 15 20 1008.1 - 0.0
13/04:30pm 21.1 18.5 15.9 72 3.1 W 24 35 13 19 1008.0 - 0.0
13/04:00pm 21.6 19.3 15.7 69 3.5 WNW 22 30 12 16 1008.2 - 0.0
13/03:30pm 21.4 19.1 15.7 70 3.4 WNW 22 32 12 17 1008.4 - 0.0
13/03:00pm 21.4 19.2 15.9 71 3.3 W 22 32 12 17 1008.7 1008.5 0.0
13/02:30pm 21.0 19.0 16.4 75 2.8 W 22 32 12 17 1008.8 - 0.0
13/02:00pm 20.7 18.5 15.9 74 2.9 W 22 32 12 17 1008.9 - 0.0
13/01:30pm 20.4 18.1 15.6 74 2.9 W 22 35 12 19 1008.9 - 0.0
13/01:00pm 19.7 16.5 15.4 76 2.5 W 26 35 14 19 1008.9 - 0.0
13/12:30pm 19.8 16.9 15.0 74 2.8 W 24 32 13 17 1008.9 - 0.0
13/12:00pm 19.7 16.5 15.4 76 2.6 W 26 35 14 19 1009.0 1008.8 0.0
13/11:30am 20.0 17.2 15.4 75 2.7 W 24 32 13 17 1009.1 - 0.0
13/11:00am 20.4 18.1 15.8 75 2.8 WNW 22 32 12 17 1009.2 - 0.0
13/10:30am 20.1 17.7 15.3 74 2.8 WNW 22 33 12 18 1009.2 - 0.0
13/10:00am 19.4 17.0 15.3 77 2.4 NW 22 32 12 17 1009.3 - 0.0
13/09:30am 18.5 15.3 14.2 76 2.5 WNW 24 33 13 18 1009.4 - 0.0
13/09:00am 18.4 14.7 12.8 70 3.2 WNW 24 32 13 17 1009.2 1009.0 0.0
13/08:30am 18.5 14.9 13.1 71 3.1 WNW 24 32 13 17 1008.7 - 0.0
13/08:00am 18.7 15.9 12.7 68 3.4 WNW 19 26 10 14 1008.1 - 0.0
13/07:30am 18.2 15.9 13.1 72 2.9 WNW 17 24 9 13 1008.3 - 0.0
13/07:00am 17.3 15.5 13.2 77 2.3 NW 15 19 8 10 1008.2 - 0.0
13/06:30am 16.7 15.1 14.0 84 1.5 NW 15 19 8 10 1008.1 - 0.0
13/06:00am 17.4 16.5 14.9 85 1.5 WNW 13 19 7 10 1008.0 1007.8 0.0
13/05:30am 17.7 17.2 14.8 83 1.7 W 11 15 6 8 1007.9 - 0.0
13/05:00am 16.1 14.6 11.9 76 2.3 WNW 11 13 6 7 1007.8 - 0.0
13/04:30am 17.0 15.6 12.1 73 2.7 WNW 11 13 6 7 1007.8 - 0.0
13/04:00am 17.1 15.7 12.2 73 2.7 NW 11 13 6 7 1007.9 - 0.0
13/03:30am 16.8 15.7 11.9 73 2.7 WNW 9 11 5 6 1008.4 - 0.0
13/03:00am 16.0 14.7 11.4 74 2.5 NW 9 13 5 7 1008.4 1008.2 0.0
13/02:30am 15.9 14.8 11.9 77 2.2 N 9 13 5 7 1009.0 - 0.0
13/02:00am 15.6 15.5 12.2 80 1.9 NNW 4 6 2 3 1009.4 - 0.0
13/01:30am 16.5 14.9 12.7 78 2.1 N 13 17 7 9 1009.4 - 0.0
13/01:00am 16.7 14.4 13.0 79 2.1 NNE 17 20 9 11 1009.6 - 0.0
13/12:30am 16.3 15.1 12.8 80 1.9 N 11 17 6 9 1010.1 - 0.0
13/12:00am 16.4 14.2 13.3 82 1.7 NNE 17 22 9 12 1010.4 1010.2 0.0
 
Date/Time
EDT
Temp
°C
App
Temp
°C
Dew
Point
Rel
Hum
%
Delta-T
°C
Wind Press
QNH
hPa
Press
MSL
hPa
Rain
since 9 am
mm
Dir
 
Spd
km/h
Gust
km/h
Spd
kts
Gust
kts
12/11:30pm 16.7 15.3 13.4 81 1.9 NNE 13 19 7 10 1011.0 - 0.0
12/11:00pm 16.8 14.4 13.7 82 1.8 NE 19 26 10 14 1011.1 - 0.0
12/10:30pm 16.9 13.9 13.8 82 1.8 NE 22 33 12 18 1011.0 - 0.0
12/10:00pm 16.8 13.8 13.7 82 1.8 ENE 22 33 12 18 1011.4 - 0.0
12/09:30pm 16.7 14.0 13.6 82 1.8 ENE 20 30 11 16 1011.6 - 0.0
12/09:00pm 17.0 13.9 13.5 80 2.0 ENE 22 28 12 15 1011.9 1011.7 0.0
12/08:30pm 17.4 14.7 13.5 78 2.2 ENE 20 30 11 16 1011.9 - 0.0
12/08:00pm 18.0 15.3 13.5 75 2.6 E 20 30 11 16 1011.9 - 0.0
12/07:30pm 18.5 16.4 13.6 73 2.8 E 17 28 9 15 1012.2 - 0.0
12/07:00pm 18.1 16.0 13.6 75 2.6 E 17 24 9 13 1012.2 - 0.0
12/06:30pm 18.3 16.5 13.4 73 2.8 E 15 24 8 13 1012.5 - 0.0
12/06:00pm 19.3 17.1 13.2 68 3.5 E 17 28 9 15 1012.9 1012.7 0.0
12/05:30pm 19.7 17.2 13.4 67 3.6 E 19 24 10 13 1013.3 - 0.0
12/05:00pm 20.0 18.2 13.2 65 3.9 E 15 22 8 12 1013.4 - 0.0
12/04:30pm 19.6 16.4 13.1 66 3.7 E 22 28 12 15 1013.6 - 0.0
12/04:00pm 19.9 17.4 13.4 66 3.7 E 19 28 10 15 1013.8 - 0.0
12/03:30pm 19.7 15.8 13.2 66 3.7 E 26 32 14 17 1014.0 - 0.0
12/03:00pm 19.4 15.5 13.3 68 3.5 ESE 26 32 14 17 1014.4 1014.2 0.0
12/02:30pm 19.4 15.5 13.3 68 3.5 E 26 30 14 16 1014.5 - 0.0
12/02:00pm 19.3 15.7 13.0 67 3.6 ESE 24 28 13 15 1014.9 - 0.0
12/01:30pm 19.5 17.3 13.2 67 3.6 SE 17 22 9 12 1015.3 - 0.0
12/01:00pm 19.6 17.8 13.3 67 3.6 SE 15 22 8 12 1015.8 - 0.0
12/12:30pm 19.3 17.0 13.0 67 3.6 SE 17 24 9 13 1016.1 - 0.0
12/12:00pm 20.0 18.9 13.0 64 4.0 SE 11 15 6 8 1016.6 1016.4 0.0
12/11:30am 19.6 17.3 13.1 66 3.7 SE 17 20 9 11 1016.6 - 0.0
12/11:00am 19.9 18.8 13.1 65 3.9 SE 11 17 6 9 1016.9 - 0.0
12/10:30am 19.3 17.8 13.0 67 3.6 SE 13 20 7 11 1017.2 - 0.0
12/10:00am 19.4 17.9 13.1 67 3.6 SE 13 22 7 12 1017.3 - 0.0
12/09:30am 18.7 15.9 12.7 68 3.4 ESE 19 22 10 12 1017.4 - 0.0
12/09:00am 18.6 17.1 13.0 70 3.2 SE 13 19 7 10 1017.4 1017.2 0.0
12/08:30am 17.2 15.6 12.9 76 2.4 ESE 13 20 7 11 1017.4 - 0.0
12/08:00am 17.0 15.4 12.7 76 2.4 ESE 13 19 7 10 1017.2 - 0.0
12/07:30am 16.8 15.2 12.7 77 2.3 ESE 13 19 7 10 1017.0 - 0.0
12/07:00am 16.4 15.1 12.6 78 2.1 E 11 15 6 8 1016.8 - 0.0
12/06:30am 16.1 14.4 12.3 78 2.1 E 13 20 7 11 1016.4 - 0.0

Other Formats:

Comma delimited format used in spreadsheet applications
http://www.bom.gov.au/fwo/IDV60801/IDV60801.94842.axf

JavaScript Object Notation format (JSON) in row-major order
http://www.bom.gov.au/fwo/IDV60801/IDV60801.94842.json